Time;durP1;ratioP1;P1;durP2;ratioP2;P2;SDS_P1;SDS_P2;PMS_P1;PMS_P2;Temp;Humidity;BMP_temperature;BMP_pressure;BME280_temperature;BME280_humidity;BME280_pressure;Samples;Min_cycle;Max_cycle;Signal;HPM_P1;HPM_P2
2022/03/16 00:02:13;;;;;;;;;;;7.70;53.50;;;;;;5041442;28;19935;-89
2022/03/16 00:04:38;;;;;;;;;;;7.70;54.00;;;;;;5058680;28;19978;-89
2022/03/16 00:07:04;;;;;;;;;;;7.60;54.20;;;;;;5041259;28;19913;-89
2022/03/16 00:09:29;;;;;;;;;;;7.60;54.10;;;;;;5041343;28;19934;-88
2022/03/16 00:11:55;;;;;;;;;;;7.60;53.90;;;;;;5059583;28;19917;-88
2022/03/16 00:14:20;;;;;;;;;;;7.60;53.70;;;;;;5048847;28;19939;-89
2022/03/16 00:16:46;;;;;;;;;;;7.50;53.60;;;;;;5079309;28;19947;-89
2022/03/16 00:19:11;;;;;;;;;;;7.50;53.50;;;;;;5080314;28;19924;-89
2022/03/16 00:21:37;;;;;;;;;;;7.40;53.40;;;;;;5062094;28;19940;-89
2022/03/16 00:24:02;;;;;;;;;;;7.40;53.40;;;;;;5079909;28;19952;-90
2022/03/16 00:26:28;;;;;;;;;;;7.30;53.40;;;;;;5079892;28;19912;-90
2022/03/16 00:28:53;;;;;;;;;;;7.30;53.50;;;;;;5044895;28;19912;-89
2022/03/16 00:31:19;;;;;;;;;;;7.30;53.50;;;;;;5079934;28;20268;-90
2022/03/16 00:33:44;;;;;;;;;;;7.30;53.50;;;;;;5079369;28;19919;-89
2022/03/16 00:36:10;;;;;;;;;;;7.20;53.60;;;;;;5062395;28;20427;-89
2022/03/16 00:38:35;;;;;;;;;;;7.20;53.60;;;;;;5062218;28;19913;-89
2022/03/16 00:41:01;;;;;;;;;;;7.20;53.60;;;;;;5080698;28;19912;-90
2022/03/16 00:43:27;;;;;;;;;;;7.20;53.60;;;;;;5060798;28;19916;-89
2022/03/16 00:45:52;;;;;;;;;;;7.20;53.50;;;;;;5062128;28;19997;-89
2022/03/16 00:48:18;;;;;;;;;;;7.20;53.50;;;;;;5061652;28;19958;-89
2022/03/16 00:50:43;;;;;;;;;;;7.10;53.50;;;;;;5061982;28;19912;-89
2022/03/16 00:53:09;;;;;;;;;;;7.10;53.50;;;;;;5061763;28;19963;-88
2022/03/16 00:55:35;;;;;;;;;;;7.10;53.40;;;;;;5062630;28;20339;-89
2022/03/16 00:58:02;;;;;;;;;;;7.10;53.30;;;;;;5063103;28;19912;-88
2022/03/16 01:00:28;;;;;;;;;;;7.00;53.30;;;;;;5063021;28;20038;-89
2022/03/16 01:02:53;;;;;;;;;;;7.00;53.40;;;;;;5079128;28;19926;-90
2022/03/16 01:05:19;;;;;;;;;;;7.00;53.40;;;;;;5079952;28;19924;-90
2022/03/16 01:07:44;;;;;;;;;;;6.90;54.10;;;;;;5060530;28;20352;-89
2022/03/16 01:10:10;;;;;;;;;;;6.90;54.00;;;;;;5078143;28;19916;-89
2022/03/16 01:12:35;;;;;;;;;;;6.80;53.80;;;;;;5060520;28;19917;-89
2022/03/16 01:15:01;;;;;;;;;;;6.80;53.70;;;;;;5077161;28;19966;-89
2022/03/16 01:17:26;;;;;;;;;;;6.80;53.80;;;;;;5059518;28;19907;-90
2022/03/16 01:19:52;;;;;;;;;;;6.70;53.80;;;;;;5059639;28;20408;-89
2022/03/16 01:22:17;;;;;;;;;;;6.70;53.90;;;;;;5078062;28;19916;-89
2022/03/16 01:24:43;;;;;;;;;;;6.70;54.20;;;;;;5060178;28;19912;-89
2022/03/16 01:27:08;;;;;;;;;;;6.70;54.40;;;;;;5060083;28;19924;-89
2022/03/16 01:29:34;;;;;;;;;;;6.70;54.20;;;;;;5060453;28;19950;-88
2022/03/16 01:31:59;;;;;;;;;;;6.60;54.10;;;;;;5060388;28;19917;-89
2022/03/16 01:34:25;;;;;;;;;;;6.60;54.00;;;;;;5059985;28;19920;-91
2022/03/16 01:36:50;;;;;;;;;;;6.60;53.90;;;;;;5060195;28;19924;-90
2022/03/16 01:39:16;;;;;;;;;;;6.50;54.00;;;;;;5059940;28;19924;-90
2022/03/16 01:41:44;;;;;;;;;;;6.50;54.30;;;;;;5059860;28;20249;-90
2022/03/16 01:44:09;;;;;;;;;;;6.60;54.50;;;;;;5059678;28;19909;-90
2022/03/16 01:46:35;;;;;;;;;;;6.50;54.50;;;;;;5076665;28;20027;-89
2022/03/16 01:49:00;;;;;;;;;;;6.50;54.30;;;;;;5059097;28;19912;-89
2022/03/16 01:51:26;;;;;;;;;;;6.50;54.20;;;;;;5077966;28;20011;-89
2022/03/16 01:53:52;;;;;;;;;;;6.50;54.10;;;;;;5076873;28;20015;-89
2022/03/16 01:56:18;;;;;;;;;;;6.50;54.10;;;;;;5077315;28;19960;-89
2022/03/16 01:58:44;;;;;;;;;;;6.50;54.20;;;;;;5077477;28;20379;-89
2022/03/16 02:01:10;;;;;;;;;;;6.40;54.20;;;;;;5077235;28;19920;-89
2022/03/16 02:03:35;;;;;;;;;;;6.40;54.20;;;;;;5059330;28;20402;-89
2022/03/16 02:06:01;;;;;;;;;;;6.40;54.00;;;;;;5058825;28;20010;-89
2022/03/16 02:08:28;;;;;;;;;;;6.40;54.00;;;;;;5059827;28;19912;-90
2022/03/16 02:10:53;;;;;;;;;;;6.30;54.00;;;;;;5059332;28;19939;-89
2022/03/16 02:13:18;;;;;;;;;;;6.30;54.00;;;;;;5077298;28;19912;-88
2022/03/16 02:15:44;;;;;;;;;;;6.20;54.20;;;;;;5058535;28;19928;-88
2022/03/16 02:18:09;;;;;;;;;;;6.20;54.30;;;;;;5059197;28;20387;-89
2022/03/16 02:20:35;;;;;;;;;;;6.20;54.30;;;;;;5076500;28;19917;-90
2022/03/16 02:23:05;;;;;;;;;;;6.20;54.20;;;;;;5058263;28;19908;-89
2022/03/16 02:25:31;;;;;;;;;;;6.20;54.20;;;;;;5057925;28;19920;-89
2022/03/16 02:27:57;;;;;;;;;;;6.20;54.30;;;;;;5058590;28;19967;-89
2022/03/16 02:30:23;;;;;;;;;;;6.20;54.20;;;;;;5058698;28;19917;-90
2022/03/16 02:32:48;;;;;;;;;;;6.10;54.10;;;;;;5076848;28;19909;-89
2022/03/16 02:35:14;;;;;;;;;;;6.10;54.10;;;;;;5076213;28;20309;-88
2022/03/16 02:37:40;;;;;;;;;;;6.10;54.20;;;;;;5058847;28;20001;-88
2022/03/16 02:40:07;;;;;;;;;;;6.10;54.10;;;;;;5058272;28;19921;-89
2022/03/16 02:42:33;;;;;;;;;;;6.10;54.20;;;;;;5057426;28;19908;-89
2022/03/16 02:44:58;;;;;;;;;;;6.00;54.30;;;;;;5057861;28;19916;-89
2022/03/16 02:47:24;;;;;;;;;;;6.00;54.30;;;;;;5057816;28;19908;-89
2022/03/16 02:49:50;;;;;;;;;;;5.90;54.20;;;;;;5057673;28;20299;-88
2022/03/16 02:52:16;;;;;;;;;;;5.90;54.20;;;;;;5058152;28;19916;-89
2022/03/16 02:54:41;;;;;;;;;;;5.80;54.10;;;;;;5058557;28;19920;-89
2022/03/16 02:57:07;;;;;;;;;;;5.80;54.10;;;;;;5076712;28;20253;-90
2022/03/16 02:59:34;;;;;;;;;;;5.80;54.20;;;;;;5058205;28;19938;-89
2022/03/16 03:01:59;;;;;;;;;;;5.80;54.20;;;;;;5058422;28;19908;-89
2022/03/16 03:04:25;;;;;;;;;;;5.70;54.40;;;;;;5058361;28;20416;-89
2022/03/16 03:06:50;;;;;;;;;;;5.70;54.50;;;;;;5079023;28;19916;-89
2022/03/16 03:09:16;;;;;;;;;;;5.70;54.70;;;;;;5062212;28;19944;-89
2022/03/16 03:11:41;;;;;;;;;;;5.70;54.70;;;;;;5061957;28;19947;-88
2022/03/16 03:14:07;;;;;;;;;;;5.70;54.70;;;;;;5061825;28;19951;-90
2022/03/16 03:16:32;;;;;;;;;;;5.70;54.70;;;;;;5062142;28;19998;-89
2022/03/16 03:18:57;;;;;;;;;;;5.70;55.00;;;;;;5079013;28;20003;-89
2022/03/16 03:21:23;;;;;;;;;;;5.70;55.20;;;;;;5061295;28;19924;-88
2022/03/16 03:23:48;;;;;;;;;;;5.70;55.30;;;;;;5079233;28;19930;-88
2022/03/16 03:26:14;;;;;;;;;;;5.70;55.30;;;;;;5062257;28;20011;-88
2022/03/16 03:28:39;;;;;;;;;;;5.70;55.10;;;;;;5079649;28;19919;-89
2022/03/16 03:31:05;;;;;;;;;;;5.70;54.90;;;;;;5080572;28;20370;-88
2022/03/16 03:33:30;;;;;;;;;;;5.70;54.80;;;;;;5062444;28;20003;-88
2022/03/16 03:35:56;;;;;;;;;;;5.60;55.20;;;;;;5061561;28;19920;-88
2022/03/16 03:38:21;;;;;;;;;;;5.60;55.20;;;;;;5079587;28;19920;-89
2022/03/16 03:40:47;;;;;;;;;;;5.70;55.10;;;;;;5061799;28;19916;-89
2022/03/16 03:43:12;;;;;;;;;;;5.60;54.90;;;;;;5061655;28;19948;-89
2022/03/16 03:45:38;;;;;;;;;;;5.60;54.90;;;;;;5080310;28;20014;-91
2022/03/16 03:48:03;;;;;;;;;;;5.60;54.80;;;;;;5078532;28;19919;-89
2022/03/16 03:50:29;;;;;;;;;;;5.50;54.70;;;;;;5060896;28;20011;-89
2022/03/16 03:52:54;;;;;;;;;;;5.50;54.70;;;;;;5060974;28;20029;-89
2022/03/16 03:55:20;;;;;;;;;;;5.50;54.80;;;;;;5079556;28;19920;-88
2022/03/16 03:57:45;;;;;;;;;;;5.50;54.90;;;;;;5063038;28;19913;-89
2022/03/16 04:00:11;;;;;;;;;;;5.50;54.90;;;;;;5060398;28;19924;-88
2022/03/16 04:02:36;;;;;;;;;;;5.50;55.00;;;;;;5078605;28;19909;-88
2022/03/16 04:05:03;;;;;;;;;;;5.40;55.00;;;;;;5077930;28;20407;-88
2022/03/16 04:07:28;;;;;;;;;;;5.40;54.90;;;;;;5060951;28;19913;-88
2022/03/16 04:09:54;;;;;;;;;;;5.40;55.10;;;;;;5060358;28;19927;-88
2022/03/16 04:12:19;;;;;;;;;;;5.40;55.40;;;;;;5061043;28;19909;-88
2022/03/16 04:14:45;;;;;;;;;;;5.40;55.40;;;;;;5078375;28;19952;-88
2022/03/16 04:17:10;;;;;;;;;;;5.40;55.20;;;;;;5060346;28;19912;-88
2022/03/16 04:19:36;;;;;;;;;;;5.40;55.20;;;;;;5060431;28;20394;-88
2022/03/16 04:22:01;;;;;;;;;;;5.30;55.10;;;;;;5078370;28;19916;-88
2022/03/16 04:24:27;;;;;;;;;;;5.30;55.10;;;;;;5060772;28;19943;-88
2022/03/16 04:26:52;;;;;;;;;;;5.40;55.10;;;;;;5078593;28;19908;-88
2022/03/16 04:29:17;;;;;;;;;;;5.30;55.20;;;;;;5060944;28;20025;-88
2022/03/16 04:31:43;;;;;;;;;;;5.30;55.40;;;;;;5078836;28;19912;-88
2022/03/16 04:34:08;;;;;;;;;;;5.30;55.40;;;;;;5078002;28;19981;-88
2022/03/16 04:36:34;;;;;;;;;;;5.30;55.40;;;;;;5078963;28;20050;-89
2022/03/16 04:38:59;;;;;;;;;;;5.30;55.40;;;;;;5077609;28;19909;-88
2022/03/16 04:41:25;;;;;;;;;;;5.30;55.50;;;;;;5079543;28;19924;-88
2022/03/16 04:43:50;;;;;;;;;;;5.30;55.50;;;;;;5060143;28;20272;-89
2022/03/16 04:46:16;;;;;;;;;;;5.30;55.60;;;;;;5060410;28;20439;-88
2022/03/16 04:48:41;;;;;;;;;;;5.30;55.60;;;;;;5077823;28;19915;-89
2022/03/16 04:51:07;;;;;;;;;;;5.30;55.60;;;;;;5078274;28;19970;-88
2022/03/16 04:53:32;;;;;;;;;;;5.30;55.60;;;;;;5078275;28;19927;-87
2022/03/16 04:55:58;;;;;;;;;;;5.30;55.70;;;;;;5059432;28;19925;-88
2022/03/16 04:58:23;;;;;;;;;;;5.30;56.00;;;;;;5060277;28;19916;-88
2022/03/16 05:00:49;;;;;;;;;;;5.30;56.10;;;;;;5078228;28;19927;-88
2022/03/16 05:03:14;;;;;;;;;;;5.30;56.20;;;;;;5059509;28;19958;-87
2022/03/16 05:05:40;;;;;;;;;;;5.30;56.30;;;;;;5077847;28;19966;-89
2022/03/16 05:08:05;;;;;;;;;;;5.30;56.20;;;;;;5060102;28;20018;-89
2022/03/16 05:10:31;;;;;;;;;;;5.30;56.80;;;;;;5059689;28;19916;-89
2022/03/16 05:12:56;;;;;;;;;;;5.40;57.30;;;;;;5079173;28;19948;-89
2022/03/16 05:15:22;;;;;;;;;;;5.50;57.40;;;;;;5059601;28;19928;-89
2022/03/16 05:17:48;;;;;;;;;;;5.50;57.30;;;;;;5076466;28;19913;-90
2022/03/16 05:20:14;;;;;;;;;;;5.50;57.10;;;;;;5076679;28;19916;-89
2022/03/16 05:22:44;;;;;;;;;;;5.50;57.20;;;;;;5059341;28;19952;-88
2022/03/16 05:25:10;;;;;;;;;;;5.50;57.30;;;;;;5059874;28;19920;-89
2022/03/16 05:27:35;;;;;;;;;;;5.50;57.50;;;;;;5058941;28;19908;-89
2022/03/16 05:30:01;;;;;;;;;;;5.50;57.40;;;;;;5076526;28;19951;-87
2022/03/16 05:32:26;;;;;;;;;;;5.50;57.60;;;;;;5060121;28;19974;-90
2022/03/16 05:34:52;;;;;;;;;;;5.60;57.80;;;;;;5060615;28;20291;-89
2022/03/16 05:37:17;;;;;;;;;;;5.60;57.90;;;;;;5078826;28;20315;-91
2022/03/16 05:39:43;;;;;;;;;;;5.70;58.00;;;;;;5079202;28;20011;-91
2022/03/16 05:42:08;;;;;;;;;;;5.70;58.10;;;;;;5060287;28;19909;-89
2022/03/16 05:44:33;;;;;;;;;;;5.70;58.10;;;;;;5061171;28;19905;-90
2022/03/16 05:46:59;;;;;;;;;;;5.70;58.20;;;;;;5078186;28;19915;-90
2022/03/16 05:49:28;;;;;;;;;;;5.80;58.30;;;;;;5069253;28;19917;-90
2022/03/16 05:51:53;;;;;;;;;;;5.80;58.50;;;;;;5040388;28;19920;-90
2022/03/16 05:54:19;;;;;;;;;;;5.90;58.70;;;;;;5057555;28;19916;-90
2022/03/16 05:56:44;;;;;;;;;;;6.00;58.90;;;;;;5058109;28;19951;-90
2022/03/16 05:59:10;;;;;;;;;;;6.00;59.00;;;;;;5057576;28;19913;-90
2022/03/16 06:01:35;;;;;;;;;;;6.10;59.10;;;;;;5039849;28;20330;-90
2022/03/16 06:04:01;;;;;;;;;;;6.30;59.10;;;;;;5057460;28;19909;-90
2022/03/16 06:06:29;;;;;;;;;;;6.40;59.10;;;;;;5040044;28;19920;-91
2022/03/16 06:08:54;;;;;;;;;;;6.50;59.00;;;;;;5040146;28;19923;-90
2022/03/16 06:11:20;;;;;;;;;;;6.60;59.00;;;;;;5040139;28;20390;-90
2022/03/16 06:13:46;;;;;;;;;;;6.70;59.10;;;;;;5039083;28;19928;-90
2022/03/16 06:16:11;;;;;;;;;;;7.00;59.50;;;;;;5040249;28;19921;-89
2022/03/16 06:18:36;;;;;;;;;;;7.10;59.70;;;;;;5039323;28;19901;-89
2022/03/16 06:21:05;;;;;;;;;;;7.40;59.90;;;;;;5058003;28;19917;-89
2022/03/16 06:23:31;;;;;;;;;;;7.60;59.90;;;;;;5050295;28;19923;-89
2022/03/16 06:25:57;;;;;;;;;;;7.80;60.10;;;;;;5045543;28;19913;-90
2022/03/16 06:28:22;;;;;;;;;;;8.10;60.80;;;;;;5041729;28;19913;-90
2022/03/16 06:30:48;;;;;;;;;;;8.40;61.40;;;;;;5057554;28;19901;-88
2022/03/16 06:33:13;;;;;;;;;;;8.80;61.60;;;;;;5038800;28;20324;-89
2022/03/16 06:35:39;;;;;;;;;;;9.00;61.40;;;;;;5039344;28;20262;-89
2022/03/16 06:38:04;;;;;;;;;;;9.30;61.70;;;;;;5038655;28;19913;-89
2022/03/16 06:40:30;;;;;;;;;;;9.70;62.40;;;;;;5057361;28;19917;-89
2022/03/16 06:42:58;;;;;;;;;;;10.10;62.60;;;;;;5058581;28;20292;-89
2022/03/16 06:45:24;;;;;;;;;;;10.40;62.40;;;;;;5043875;28;19920;-91
2022/03/16 06:47:50;;;;;;;;;;;10.70;62.40;;;;;;5040081;28;19980;-90
2022/03/16 06:50:15;;;;;;;;;;;11.10;62.30;;;;;;5040046;28;19955;-90
2022/03/16 06:52:41;;;;;;;;;;;11.40;62.70;;;;;;5038651;28;19920;-90
2022/03/16 06:55:07;;;;;;;;;;;11.80;64.00;;;;;;5057084;28;20027;-89
2022/03/16 06:57:33;;;;;;;;;;;12.20;64.50;;;;;;5024375;28;19923;-89
2022/03/16 06:59:58;;;;;;;;;;;12.70;65.10;;;;;;5039020;28;19917;-89
2022/03/16 07:02:24;;;;;;;;;;;13.30;65.20;;;;;;5040778;28;19909;-90
2022/03/16 07:04:49;;;;;;;;;;;13.90;65.30;;;;;;5038505;28;19916;-90
2022/03/16 07:07:15;;;;;;;;;;;14.30;65.10;;;;;;5039673;28;19959;-90
2022/03/16 07:09:40;;;;;;;;;;;14.90;64.70;;;;;;5040268;28;19913;-91
2022/03/16 07:12:06;;;;;;;;;;;15.30;63.90;;;;;;5040566;28;19921;-90
2022/03/16 07:14:32;;;;;;;;;;;15.80;63.40;;;;;;5039295;28;21871;-90
2022/03/16 07:16:57;;;;;;;;;;;16.10;62.70;;;;;;5039117;28;20123;-89
2022/03/16 07:19:23;;;;;;;;;;;16.40;62.90;;;;;;5040699;28;19944;-92
2022/03/16 07:21:48;;;;;;;;;;;16.80;62.70;;;;;;5058429;28;19917;-91
2022/03/16 07:24:14;;;;;;;;;;;17.30;62.60;;;;;;5039286;28;19916;-90
2022/03/16 07:26:39;;;;;;;;;;;17.70;62.40;;;;;;5038959;28;19917;-90
2022/03/16 07:29:08;;;;;;;;;;;18.10;62.30;;;;;;5038821;28;20007;-90
2022/03/16 07:31:33;;;;;;;;;;;18.50;61.80;;;;;;5038837;28;19995;-89
2022/03/16 07:33:58;;;;;;;;;;;18.90;61.50;;;;;;5039549;28;19961;-89
2022/03/16 07:36:24;;;;;;;;;;;19.30;62.10;;;;;;5038934;28;19913;-91
2022/03/16 07:38:49;;;;;;;;;;;19.80;62.00;;;;;;5039082;28;19975;-90
2022/03/16 07:41:15;;;;;;;;;;;20.20;61.30;;;;;;5056395;28;19925;-91
2022/03/16 07:43:41;;;;;;;;;;;20.40;60.80;;;;;;5038750;28;19920;-90
2022/03/16 07:46:06;;;;;;;;;;;20.70;60.60;;;;;;5038722;28;19917;-91
2022/03/16 07:48:34;;;;;;;;;;;20.90;60.20;;;;;;5039359;28;19916;-90
2022/03/16 07:51:00;;;;;;;;;;;21.00;58.90;;;;;;5038584;28;20032;-91
2022/03/16 07:53:27;;;;;;;;;;;21.20;59.20;;;;;;5041187;28;19921;-90
2022/03/16 07:55:56;;;;;;;;;;;21.40;59.60;;;;;;5059291;28;19921;-89
2022/03/16 07:58:22;;;;;;;;;;;21.50;57.70;;;;;;5059657;28;20363;-90
2022/03/16 08:00:47;;;;;;;;;;;21.70;58.60;;;;;;5041556;28;19928;-90
2022/03/16 08:03:13;;;;;;;;;;;22.00;60.20;;;;;;5058728;28;20388;-91
2022/03/16 08:05:39;;;;;;;;;;;22.40;61.00;;;;;;5040870;28;20249;-91
2022/03/16 08:08:05;;;;;;;;;;;22.80;60.80;;;;;;5041825;28;19951;-90
2022/03/16 08:10:31;;;;;;;;;;;23.00;58.00;;;;;;5060404;28;19939;-90
2022/03/16 08:12:56;;;;;;;;;;;23.30;58.60;;;;;;5041427;28;19917;-90
2022/03/16 08:15:22;;;;;;;;;;;23.50;58.50;;;;;;5041971;28;20015;-90
2022/03/16 08:17:47;;;;;;;;;;;23.80;59.10;;;;;;5059591;28;20344;-90
2022/03/16 08:20:13;;;;;;;;;;;23.90;57.50;;;;;;5041960;28;20356;-91
2022/03/16 08:22:38;;;;;;;;;;;24.00;56.90;;;;;;5041015;28;19920;-90
2022/03/16 08:25:05;;;;;;;;;;;24.00;56.10;;;;;;5060194;28;19913;-90
2022/03/16 08:27:32;;;;;;;;;;;23.90;55.90;;;;;;5025327;28;19920;-90
2022/03/16 08:29:57;;;;;;;;;;;23.80;54.90;;;;;;5060135;28;19921;-90
2022/03/16 08:32:23;;;;;;;;;;;23.60;55.40;;;;;;5057582;28;19966;-90
2022/03/16 08:34:49;;;;;;;;;;;23.50;54.90;;;;;;5063660;28;19967;-91
2022/03/16 08:37:15;;;;;;;;;;;23.20;52.70;;;;;;5061924;28;19908;-90
2022/03/16 08:39:41;;;;;;;;;;;22.90;51.30;;;;;;5046683;28;19920;-90
2022/03/16 08:42:08;;;;;;;;;;;22.70;51.60;;;;;;5062934;28;20402;-91
2022/03/16 08:44:33;;;;;;;;;;;22.40;50.90;;;;;;5058526;28;19939;-90
2022/03/16 08:46:59;;;;;;;;;;;22.30;51.80;;;;;;5061651;28;19917;-91
2022/03/16 08:49:24;;;;;;;;;;;22.20;48.50;;;;;;5062155;28;19913;-90
2022/03/16 08:51:50;;;;;;;;;;;22.20;50.10;;;;;;5061956;28;19913;-90
2022/03/16 08:54:16;;;;;;;;;;;22.20;48.60;;;;;;5047056;28;19921;-90
2022/03/16 08:56:42;;;;;;;;;;;22.40;49.80;;;;;;5041908;28;19917;-90
2022/03/16 08:59:08;;;;;;;;;;;22.60;49.80;;;;;;5040734;28;19916;-90
2022/03/16 09:01:33;;;;;;;;;;;22.70;46.80;;;;;;5041955;28;20360;-89
2022/03/16 09:03:59;;;;;;;;;;;22.80;46.30;;;;;;5040394;28;19924;-90
2022/03/16 09:06:25;;;;;;;;;;;22.90;45.10;;;;;;5042204;28;20067;-90
2022/03/16 09:08:50;;;;;;;;;;;23.10;45.00;;;;;;5041954;28;19916;-90
2022/03/16 09:11:15;;;;;;;;;;;23.30;44.00;;;;;;5041869;28;19913;-90
2022/03/16 09:13:41;;;;;;;;;;;23.40;42.80;;;;;;5041069;28;19916;-89
2022/03/16 09:16:06;;;;;;;;;;;23.50;42.20;;;;;;5041319;28;19920;-90
2022/03/16 09:18:32;;;;;;;;;;;23.50;40.90;;;;;;5041494;28;20364;-90
2022/03/16 09:20:59;;;;;;;;;;;23.50;38.50;;;;;;5059651;28;20003;-90
2022/03/16 09:23:24;;;;;;;;;;;23.40;38.90;;;;;;5040223;28;19999;-90
2022/03/16 09:25:50;;;;;;;;;;;23.50;38.10;;;;;;5058984;28;19936;-90
2022/03/16 09:28:15;;;;;;;;;;;23.70;38.10;;;;;;5051881;28;19913;-90
2022/03/16 09:30:41;;;;;;;;;;;23.90;37.80;;;;;;5043698;28;19920;-89
2022/03/16 09:33:08;;;;;;;;;;;24.20;36.80;;;;;;5059586;28;19916;-90
2022/03/16 09:35:35;;;;;;;;;;;24.30;34.80;;;;;;5041768;28;19916;-90
2022/03/16 09:38:00;;;;;;;;;;;24.20;34.20;;;;;;5041185;28;19936;-89
2022/03/16 09:40:26;;;;;;;;;;;24.00;34.00;;;;;;5040823;28;20372;-90
2022/03/16 09:42:52;;;;;;;;;;;23.80;33.70;;;;;;5041253;28;19920;-90
2022/03/16 09:45:19;;;;;;;;;;;23.80;33.90;;;;;;5042214;28;19913;-90
2022/03/16 09:47:45;;;;;;;;;;;23.70;33.60;;;;;;5059759;28;19943;-90
2022/03/16 09:50:11;;;;;;;;;;;23.80;33.80;;;;;;5060273;28;19917;-91
2022/03/16 09:52:37;;;;;;;;;;;23.80;33.60;;;;;;5041609;28;19916;-90
2022/03/16 09:55:05;;;;;;;;;;;24.10;33.00;;;;;;5042191;28;20435;-90
2022/03/16 09:57:31;;;;;;;;;;;24.20;32.90;;;;;;5040751;28;19928;-90
2022/03/16 09:59:56;;;;;;;;;;;24.30;31.70;;;;;;5042331;28;19920;-90
2022/03/16 10:02:22;;;;;;;;;;;24.20;31.70;;;;;;5059604;28;19908;-90
2022/03/16 10:04:47;;;;;;;;;;;24.20;31.00;;;;;;5041768;28;19967;-90
2022/03/16 10:07:13;;;;;;;;;;;24.30;30.90;;;;;;5041123;28;19909;-91
2022/03/16 10:15:18;;;;;;;;;;;24.40;29.70;;;;;;5062244;28;19943;-92
2022/03/16 10:17:48;;;;;;;;;;;24.50;30.10;;;;;;5043143;28;19909;-91
2022/03/16 10:20:21;;;;;;;;;;;24.40;28.80;;;;;;5040640;28;19917;-91
2022/03/16 10:22:55;;;;;;;;;;;24.30;28.40;;;;;;5040359;28;19909;-91
2022/03/16 10:25:22;;;;;;;;;;;24.40;28.90;;;;;;5040713;28;19920;-91
2022/03/16 10:27:47;;;;;;;;;;;24.40;29.00;;;;;;5040290;28;19974;-91
2022/03/16 10:30:13;;;;;;;;;;;24.40;28.70;;;;;;5041254;28;19917;-91
2022/03/16 10:32:39;;;;;;;;;;;24.40;28.80;;;;;;5058262;28;19909;-90
2022/03/16 10:35:05;;;;;;;;;;;24.50;28.30;;;;;;5040953;28;19929;-90
2022/03/16 10:37:32;;;;;;;;;;;24.30;28.00;;;;;;5040681;28;19913;-90
2022/03/16 10:40:00;;;;;;;;;;;24.30;28.10;;;;;;5040804;28;20364;-90
2022/03/16 10:48:11;;;;;;;;;;;24.00;28.50;;;;;;5077786;28;19965;-91
2022/03/16 10:50:39;;;;;;;;;;;24.10;29.00;;;;;;5060130;28;19935;-90
2022/03/16 10:53:05;;;;;;;;;;;24.20;28.70;;;;;;5058499;28;20423;-91
2022/03/16 10:55:30;;;;;;;;;;;24.20;28.10;;;;;;5058888;28;19968;-91
2022/03/16 10:57:56;;;;;;;;;;;24.20;28.30;;;;;;5059107;28;20363;-91
2022/03/16 11:00:23;;;;;;;;;;;24.40;28.90;;;;;;5058973;28;20371;-90
2022/03/16 11:02:50;;;;;;;;;;;24.50;28.20;;;;;;5077119;28;19916;-92
2022/03/16 11:05:18;;;;;;;;;;;24.70;28.00;;;;;;5059928;28;19917;-91
2022/03/16 11:07:46;;;;;;;;;;;24.80;28.00;;;;;;5077705;28;20404;-90
2022/03/16 11:10:11;;;;;;;;;;;25.00;27.70;;;;;;5059968;28;20318;-90
2022/03/16 11:15:21;;;;;;;;;;;25.10;27.30;;;;;;5078013;28;19982;-91
2022/03/16 11:17:47;;;;;;;;;;;25.00;27.30;;;;;;5058797;28;20356;-91
2022/03/16 11:20:12;;;;;;;;;;;25.20;27.40;;;;;;5059388;28;19917;-91
2022/03/16 11:25:48;;;;;;;;;;;25.30;27.00;;;;;;5077573;28;19969;-91
2022/03/16 11:28:16;;;;;;;;;;;25.20;26.90;;;;;;5062655;28;20049;-91
2022/03/16 11:30:42;;;;;;;;;;;25.10;26.70;;;;;;5081800;28;20280;-91
2022/03/16 11:33:10;;;;;;;;;;;25.10;26.70;;;;;;5062786;28;19909;-91
2022/03/16 11:35:37;;;;;;;;;;;25.20;27.00;;;;;;5081417;28;19955;-91
2022/03/16 11:38:09;;;;;;;;;;;25.20;26.50;;;;;;5061748;28;19912;-91
2022/03/16 11:40:35;;;;;;;;;;;25.00;26.30;;;;;;5062211;28;20016;-91
2022/03/16 11:43:04;;;;;;;;;;;24.80;26.40;;;;;;5064089;28;19931;-92
2022/03/16 11:45:50;;;;;;;;;;;24.80;26.80;;;;;;5082651;28;20360;-92
2022/03/16 11:48:32;;;;;;;;;;;24.70;26.80;;;;;;5064386;28;19913;-91
2022/03/16 11:51:09;;;;;;;;;;;24.60;26.50;;;;;;5064003;28;19923;-91
2022/03/16 11:54:01;;;;;;;;;;;24.50;26.70;;;;;;5062720;28;19916;-92
2022/03/16 11:56:40;;;;;;;;;;;24.30;26.90;;;;;;5062676;28;20131;-91
2022/03/16 11:59:22;;;;;;;;;;;24.30;27.20;;;;;;5062463;28;19917;-91
2022/03/16 12:01:50;;;;;;;;;;;24.20;27.10;;;;;;5062304;28;19917;-91
2022/03/16 12:04:19;;;;;;;;;;;24.30;27.50;;;;;;5081624;28;19908;-90
2022/03/16 12:06:47;;;;;;;;;;;24.30;26.90;;;;;;5082006;28;19974;-90
2022/03/16 12:09:20;;;;;;;;;;;24.20;26.80;;;;;;5062346;28;20386;-91
2022/03/16 12:15:00;;;;;;;;;;;24.20;27.00;;;;;;5056301;28;19987;-90
2022/03/16 12:17:25;;;;;;;;;;;24.10;27.00;;;;;;5063714;28;19920;-91
2022/03/16 12:20:34;;;;;;;;;;;24.20;27.10;;;;;;5080801;28;19923;-90
2022/03/16 12:23:01;;;;;;;;;;;24.50;27.10;;;;;;4984135;28;19918;-91
2022/03/16 12:25:30;;;;;;;;;;;24.70;26.70;;;;;;4968025;28;19914;-90
2022/03/16 12:30:45;;;;;;;;;;;25.10;26.20;;;;;;5082144;28;19923;-90
2022/03/16 12:33:11;;;;;;;;;;;25.20;26.20;;;;;;5065099;28;20288;-91
2022/03/16 12:35:37;;;;;;;;;;;25.30;26.10;;;;;;5047207;28;19980;-91
2022/03/16 12:38:05;;;;;;;;;;;25.50;26.10;;;;;;5062375;28;20000;-91
2022/03/16 12:40:31;;;;;;;;;;;25.50;26.10;;;;;;5080705;28;19916;-92
2022/03/16 12:42:57;;;;;;;;;;;25.50;26.00;;;;;;5062915;28;19927;-91
2022/03/16 12:45:25;;;;;;;;;;;25.70;26.20;;;;;;5082148;28;19912;-91
2022/03/16 12:48:19;;;;;;;;;;;25.80;26.20;;;;;;5064159;28;20011;-92
2022/03/16 12:50:44;;;;;;;;;;;25.80;26.20;;;;;;5077015;28;19915;-91
2022/03/16 12:53:10;;;;;;;;;;;25.80;26.10;;;;;;5065408;28;19951;-91
2022/03/16 12:55:35;;;;;;;;;;;25.80;26.10;;;;;;5081676;28;19959;-90
2022/03/16 12:58:08;;;;;;;;;;;25.80;25.80;;;;;;5065481;28;19920;-91
2022/03/16 13:00:38;;;;;;;;;;;25.90;26.00;;;;;;5070591;28;20012;-90
2022/03/16 13:03:12;;;;;;;;;;;25.80;25.60;;;;;;5087584;28;20280;-91
2022/03/16 13:05:38;;;;;;;;;;;25.70;25.70;;;;;;5070117;28;19918;-91
2022/03/16 13:08:04;;;;;;;;;;;25.60;25.90;;;;;;5083446;28;19956;-91
2022/03/16 13:11:14;;;;;;;;;;;25.50;26.10;;;;;;5066283;28;19917;-91
2022/03/16 13:13:19;;;;;;;;;;;25.60;26.50;;;;;;5084757;28;19916;-91
2022/03/16 13:15:49;;;;;;;;;;;25.40;26.10;;;;;;5066950;28;19954;-91
2022/03/16 13:18:30;;;;;;;;;;;25.30;26.00;;;;;;5067222;28;19919;-90
2022/03/16 13:20:56;;;;;;;;;;;25.10;26.30;;;;;;5066593;28;19912;-90
2022/03/16 13:23:32;;;;;;;;;;;24.90;26.30;;;;;;5069391;28;19908;-92
2022/03/16 13:26:05;;;;;;;;;;;24.70;26.50;;;;;;5066712;28;19939;-91
2022/03/16 13:28:31;;;;;;;;;;;24.30;26.70;;;;;;5047422;28;19919;-91
2022/03/16 13:31:03;;;;;;;;;;;23.80;26.80;;;;;;5067459;28;19976;-91
2022/03/16 13:33:32;;;;;;;;;;;23.40;27.30;;;;;;5068853;28;19946;-91
2022/03/16 13:36:13;;;;;;;;;;;22.90;27.80;;;;;;5068170;28;19937;-92
2022/03/16 13:38:38;;;;;;;;;;;22.60;28.30;;;;;;5085504;28;19912;-90
2022/03/16 13:41:14;;;;;;;;;;;22.30;28.70;;;;;;5070419;28;19920;-90
2022/03/16 13:43:39;;;;;;;;;;;22.20;29.10;;;;;;5081798;28;19950;-89
2022/03/16 13:46:11;;;;;;;;;;;22.00;29.50;;;;;;5095430;28;19909;-90
2022/03/16 13:48:38;;;;;;;;;;;21.80;29.90;;;;;;5100065;22;19928;-90
2022/03/16 13:51:06;;;;;;;;;;;21.70;29.70;;;;;;5063126;28;19917;-89
2022/03/16 13:53:47;;;;;;;;;;;21.50;29.90;;;;;;5081775;28;20013;-90
2022/03/16 13:56:22;;;;;;;;;;;21.40;29.90;;;;;;5079413;28;20385;-89
2022/03/16 13:58:53;;;;;;;;;;;21.20;30.20;;;;;;5060544;28;19909;-90
2022/03/16 14:01:21;;;;;;;;;;;21.20;30.50;;;;;;5063232;28;19908;-89
2022/03/16 14:03:50;;;;;;;;;;;21.10;30.50;;;;;;5075664;28;19979;-91
2022/03/16 14:06:15;;;;;;;;;;;21.10;30.60;;;;;;5060757;28;19959;-89
2022/03/16 14:08:41;;;;;;;;;;;21.10;30.70;;;;;;5062884;28;19915;-90
2022/03/16 14:11:07;;;;;;;;;;;20.90;30.90;;;;;;5075956;22;19924;-88
2022/03/16 14:13:40;;;;;;;;;;;21.00;30.80;;;;;;5096820;28;19938;-88
2022/03/16 14:16:15;;;;;;;;;;;20.90;30.60;;;;;;5080056;28;19924;-90
2022/03/16 14:18:41;;;;;;;;;;;20.80;30.40;;;;;;5080766;28;20378;-88
2022/03/16 14:21:09;;;;;;;;;;;20.70;30.00;;;;;;5080158;28;19920;-89
2022/03/16 14:23:35;;;;;;;;;;;20.70;30.10;;;;;;5092141;22;19978;-90
2022/03/16 14:26:01;;;;;;;;;;;20.60;30.40;;;;;;5062368;28;19936;-91
2022/03/16 14:28:27;;;;;;;;;;;20.70;30.50;;;;;;5061938;28;19922;-90
2022/03/16 14:30:54;;;;;;;;;;;20.60;30.50;;;;;;5061978;28;19956;-91
2022/03/16 14:33:22;;;;;;;;;;;20.50;30.10;;;;;;5062018;28;19919;-89
2022/03/16 14:35:49;;;;;;;;;;;20.50;30.60;;;;;;5063808;28;20406;-91
2022/03/16 14:38:15;;;;;;;;;;;20.50;31.20;;;;;;5059164;28;20374;-92
2022/03/16 14:40:42;;;;;;;;;;;20.50;31.60;;;;;;5061741;28;19917;-90
2022/03/16 14:43:08;;;;;;;;;;;20.40;31.60;;;;;;5064983;28;19920;-91
2022/03/16 14:45:35;;;;;;;;;;;20.40;31.80;;;;;;5060551;28;20008;-89